sensor_id;sensor_type;location;lat;lon;timestamp;temperature;humidity
47434;SHT31;33184;48.774;8.918;2023-07-13T00:00:35;18.80;62.32
47434;SHT31;33184;48.774;8.918;2023-07-13T00:06:00;18.81;61.26
47434;SHT31;33184;48.774;8.918;2023-07-13T00:11:21;18.83;60.77
47434;SHT31;33184;48.774;8.918;2023-07-13T00:16:42;18.81;60.59
47434;SHT31;33184;48.774;8.918;2023-07-13T00:22:04;18.78;60.44
47434;SHT31;33184;48.774;8.918;2023-07-13T00:27:25;18.64;60.33
47434;SHT31;33184;48.774;8.918;2023-07-13T00:32:50;18.61;60.39
47434;SHT31;33184;48.774;8.918;2023-07-13T00:38:11;18.57;60.08
47434;SHT31;33184;48.774;8.918;2023-07-13T00:43:32;18.53;59.88
47434;SHT31;33184;48.774;8.918;2023-07-13T00:48:54;18.52;59.48
47434;SHT31;33184;48.774;8.918;2023-07-13T00:54:44;18.53;59.60
47434;SHT31;33184;48.774;8.918;2023-07-13T01:00:06;18.50;59.55
47434;SHT31;33184;48.774;8.918;2023-07-13T01:05:29;18.42;59.67
47434;SHT31;33184;48.774;8.918;2023-07-13T01:10:56;18.33;59.63
47434;SHT31;33184;48.774;8.918;2023-07-13T01:16:24;18.24;59.80
47434;SHT31;33184;48.774;8.918;2023-07-13T01:21:50;18.10;60.13
47434;SHT31;33184;48.774;8.918;2023-07-13T01:27:14;18.03;60.69
47434;SHT31;33184;48.774;8.918;2023-07-13T01:32:35;17.88;61.16
47434;SHT31;33184;48.774;8.918;2023-07-13T01:37:57;17.72;61.54
47434;SHT31;33184;48.774;8.918;2023-07-13T01:43:18;17.65;61.75
47434;SHT31;33184;48.774;8.918;2023-07-13T01:48:39;17.62;61.53
47434;SHT31;33184;48.774;8.918;2023-07-13T01:54:00;17.67;61.12
47434;SHT31;33184;48.774;8.918;2023-07-13T01:59:20;17.71;60.93
47434;SHT31;33184;48.774;8.918;2023-07-13T02:04:41;17.77;61.25
47434;SHT31;33184;48.774;8.918;2023-07-13T02:10:01;17.69;61.62
47434;SHT31;33184;48.774;8.918;2023-07-13T02:15:22;17.62;62.50
47434;SHT31;33184;48.774;8.918;2023-07-13T02:20:43;17.58;62.80
47434;SHT31;33184;48.774;8.918;2023-07-13T02:26:04;17.59;63.12
47434;SHT31;33184;48.774;8.918;2023-07-13T02:31:25;17.54;63.55
47434;SHT31;33184;48.774;8.918;2023-07-13T02:36:48;17.41;63.52
47434;SHT31;33184;48.774;8.918;2023-07-13T02:42:08;17.13;64.87
47434;SHT31;33184;48.774;8.918;2023-07-13T02:47:31;16.96;65.58
47434;SHT31;33184;48.774;8.918;2023-07-13T02:52:52;16.97;65.35
47434;SHT31;33184;48.774;8.918;2023-07-13T02:58:13;16.89;65.23
47434;SHT31;33184;48.774;8.918;2023-07-13T03:03:37;16.92;65.27
47434;SHT31;33184;48.774;8.918;2023-07-13T03:08:58;16.99;65.22
47434;SHT31;33184;48.774;8.918;2023-07-13T03:14:19;16.96;65.48
47434;SHT31;33184;48.774;8.918;2023-07-13T03:19:41;16.93;65.78
47434;SHT31;33184;48.774;8.918;2023-07-13T03:25:01;16.79;66.53
47434;SHT31;33184;48.774;8.918;2023-07-13T03:30:22;16.82;67.73
47434;SHT31;33184;48.774;8.918;2023-07-13T03:35:44;16.77;68.28
47434;SHT31;33184;48.774;8.918;2023-07-13T03:41:05;16.59;67.68
47434;SHT31;33184;48.774;8.918;2023-07-13T03:46:26;16.32;69.18
47434;SHT31;33184;48.774;8.918;2023-07-13T03:51:47;16.22;69.49
47434;SHT31;33184;48.774;8.918;2023-07-13T03:57:08;16.25;69.51
47434;SHT31;33184;48.774;8.918;2023-07-13T04:02:30;16.28;69.09
47434;SHT31;33184;48.774;8.918;2023-07-13T04:07:51;16.33;69.01
47434;SHT31;33184;48.774;8.918;2023-07-13T04:13:11;16.41;68.92
47434;SHT31;33184;48.774;8.918;2023-07-13T04:18:32;16.35;69.33
47434;SHT31;33184;48.774;8.918;2023-07-13T04:23:52;16.10;70.30
47434;SHT31;33184;48.774;8.918;2023-07-13T04:29:13;16.17;70.05
47434;SHT31;33184;48.774;8.918;2023-07-13T04:34:34;16.18;69.91
47434;SHT31;33184;48.774;8.918;2023-07-13T04:39:55;16.29;70.40
47434;SHT31;33184;48.774;8.918;2023-07-13T04:45:15;16.24;70.75
47434;SHT31;33184;48.774;8.918;2023-07-13T04:50:37;16.28;70.79
47434;SHT31;33184;48.774;8.918;2023-07-13T04:55:58;16.21;71.38
47434;SHT31;33184;48.774;8.918;2023-07-13T05:01:18;16.33;71.36
47434;SHT31;33184;48.774;8.918;2023-07-13T05:06:40;16.39;71.42
47434;SHT31;33184;48.774;8.918;2023-07-13T05:12:01;16.49;71.44
47434;SHT31;33184;48.774;8.918;2023-07-13T05:17:22;16.53;71.83
47434;SHT31;33184;48.774;8.918;2023-07-13T05:22:43;16.62;71.55
47434;SHT31;33184;48.774;8.918;2023-07-13T05:28:03;16.74;72.17
47434;SHT31;33184;48.774;8.918;2023-07-13T05:33:24;16.77;72.09
47434;SHT31;33184;48.774;8.918;2023-07-13T05:38:45;16.80;71.36
47434;SHT31;33184;48.774;8.918;2023-07-13T05:44:06;16.92;70.67
47434;SHT31;33184;48.774;8.918;2023-07-13T05:49:26;16.86;69.43
47434;SHT31;33184;48.774;8.918;2023-07-13T05:54:47;16.99;69.77
47434;SHT31;33184;48.774;8.918;2023-07-13T06:00:08;16.92;70.12
47434;SHT31;33184;48.774;8.918;2023-07-13T06:05:33;16.74;70.34
47434;SHT31;33184;48.774;8.918;2023-07-13T06:10:54;16.93;69.54
47434;SHT31;33184;48.774;8.918;2023-07-13T06:16:15;17.10;69.09
47434;SHT31;33184;48.774;8.918;2023-07-13T06:21:36;17.17;69.11
47434;SHT31;33184;48.774;8.918;2023-07-13T06:26:57;17.47;69.05
47434;SHT31;33184;48.774;8.918;2023-07-13T06:32:17;17.78;65.50
47434;SHT31;33184;48.774;8.918;2023-07-13T06:37:38;18.12;62.90
47434;SHT31;33184;48.774;8.918;2023-07-13T06:42:58;18.29;60.56
47434;SHT31;33184;48.774;8.918;2023-07-13T06:48:19;18.26;58.75
47434;SHT31;33184;48.774;8.918;2023-07-13T06:53:40;18.19;59.03
47434;SHT31;33184;48.774;8.918;2023-07-13T06:59:01;18.32;58.89
47434;SHT31;33184;48.774;8.918;2023-07-13T07:04:21;18.49;59.02
47434;SHT31;33184;48.774;8.918;2023-07-13T07:09:42;18.73;57.73
47434;SHT31;33184;48.774;8.918;2023-07-13T07:15:03;18.77;55.34
47434;SHT31;33184;48.774;8.918;2023-07-13T07:20:23;18.95;54.00
47434;SHT31;33184;48.774;8.918;2023-07-13T07:25:45;19.06;53.33
47434;SHT31;33184;48.774;8.918;2023-07-13T07:31:06;19.18;53.12
47434;SHT31;33184;48.774;8.918;2023-07-13T07:36:26;19.42;52.20
47434;SHT31;33184;48.774;8.918;2023-07-13T07:41:48;19.34;51.77
47434;SHT31;33184;48.774;8.918;2023-07-13T07:47:08;19.39;52.03
47434;SHT31;33184;48.774;8.918;2023-07-13T07:52:29;19.59;51.30
47434;SHT31;33184;48.774;8.918;2023-07-13T07:57:49;19.96;50.27
47434;SHT31;33184;48.774;8.918;2023-07-13T08:03:10;20.04;49.72
47434;SHT31;33184;48.774;8.918;2023-07-13T08:08:30;20.14;49.55
47434;SHT31;33184;48.774;8.918;2023-07-13T08:13:51;20.37;47.97
47434;SHT31;33184;48.774;8.918;2023-07-13T08:19:12;20.49;48.38
47434;SHT31;33184;48.774;8.918;2023-07-13T08:24:32;20.71;47.01
47434;SHT31;33184;48.774;8.918;2023-07-13T08:29:53;20.82;46.07
47434;SHT31;33184;48.774;8.918;2023-07-13T08:35:14;20.81;46.03
47434;SHT31;33184;48.774;8.918;2023-07-13T08:40:36;20.92;45.19
47434;SHT31;33184;48.774;8.918;2023-07-13T08:46:11;21.17;45.49
47434;SHT31;33184;48.774;8.918;2023-07-13T08:56:56;21.39;46.19
47434;SHT31;33184;48.774;8.918;2023-07-13T09:02:22;21.75;44.16
47434;SHT31;33184;48.774;8.918;2023-07-13T09:08:14;21.75;43.80
47434;SHT31;33184;48.774;8.918;2023-07-13T09:13:58;21.84;43.68
47434;SHT31;33184;48.774;8.918;2023-07-13T09:19:28;21.93;43.45
47434;SHT31;33184;48.774;8.918;2023-07-13T09:25:21;21.94;42.95
47434;SHT31;33184;48.774;8.918;2023-07-13T09:30:54;22.24;43.93
47434;SHT31;33184;48.774;8.918;2023-07-13T09:36:26;22.28;43.36
47434;SHT31;33184;48.774;8.918;2023-07-13T09:41:54;22.04;43.71
47434;SHT31;33184;48.774;8.918;2023-07-13T09:47:18;22.14;43.69
47434;SHT31;33184;48.774;8.918;2023-07-13T09:52:47;22.45;44.63
47434;SHT31;33184;48.774;8.918;2023-07-13T09:58:20;22.48;42.91
47434;SHT31;33184;48.774;8.918;2023-07-13T10:03:54;22.72;42.34
47434;SHT31;33184;48.774;8.918;2023-07-13T10:09:17;22.82;41.04
47434;SHT31;33184;48.774;8.918;2023-07-13T10:14:39;22.90;41.71
47434;SHT31;33184;48.774;8.918;2023-07-13T10:20:04;22.92;41.74
47434;SHT31;33184;48.774;8.918;2023-07-13T10:25:27;23.02;42.27
47434;SHT31;33184;48.774;8.918;2023-07-13T10:30:52;23.26;40.83
47434;SHT31;33184;48.774;8.918;2023-07-13T10:41:39;23.79;39.13
47434;SHT31;33184;48.774;8.918;2023-07-13T10:47:06;23.95;40.50
47434;SHT31;33184;48.774;8.918;2023-07-13T10:52:45;23.81;39.74
47434;SHT31;33184;48.774;8.918;2023-07-13T10:58:28;23.31;40.70
47434;SHT31;33184;48.774;8.918;2023-07-13T11:04:00;23.16;40.54
47434;SHT31;33184;48.774;8.918;2023-07-13T11:25:36;23.38;40.44
47434;SHT31;33184;48.774;8.918;2023-07-13T11:36:21;23.69;38.55
47434;SHT31;33184;48.774;8.918;2023-07-13T11:41:45;23.57;38.67
47434;SHT31;33184;48.774;8.918;2023-07-13T11:47:17;24.02;37.32
47434;SHT31;33184;48.774;8.918;2023-07-13T11:52:40;25.31;37.26
47434;SHT31;33184;48.774;8.918;2023-07-13T11:58:01;26.94;33.71
47434;SHT31;33184;48.774;8.918;2023-07-13T12:03:25;25.31;35.87
47434;SHT31;33184;48.774;8.918;2023-07-13T12:08:46;26.51;34.96
47434;SHT31;33184;48.774;8.918;2023-07-13T12:14:13;26.15;34.62
47434;SHT31;33184;48.774;8.918;2023-07-13T12:19:35;26.47;33.59
47434;SHT31;33184;48.774;8.918;2023-07-13T12:24:56;27.07;33.36
47434;SHT31;33184;48.774;8.918;2023-07-13T12:30:28;26.60;32.38
47434;SHT31;33184;48.774;8.918;2023-07-13T12:35:52;26.43;32.94
47434;SHT31;33184;48.774;8.918;2023-07-13T12:41:15;26.46;32.62
47434;SHT31;33184;48.774;8.918;2023-07-13T12:46:35;27.39;31.48
47434;SHT31;33184;48.774;8.918;2023-07-13T12:52:02;28.07;30.69
47434;SHT31;33184;48.774;8.918;2023-07-13T12:57:23;27.70;30.73
47434;SHT31;33184;48.774;8.918;2023-07-13T13:02:44;28.17;30.39
47434;SHT31;33184;48.774;8.918;2023-07-13T13:08:05;28.45;29.28
47434;SHT31;33184;48.774;8.918;2023-07-13T13:13:25;28.21;30.05
47434;SHT31;33184;48.774;8.918;2023-07-13T13:18:46;28.18;29.48
47434;SHT31;33184;48.774;8.918;2023-07-13T13:24:25;27.92;29.46
47434;SHT31;33184;48.774;8.918;2023-07-13T13:29:48;28.20;29.96
47434;SHT31;33184;48.774;8.918;2023-07-13T13:35:15;27.96;30.85
47434;SHT31;33184;48.774;8.918;2023-07-13T13:40:36;28.57;30.25
47434;SHT31;33184;48.774;8.918;2023-07-13T13:45:58;29.09;28.46
47434;SHT31;33184;48.774;8.918;2023-07-13T13:51:24;29.28;28.87
47434;SHT31;33184;48.774;8.918;2023-07-13T13:56:47;28.65;30.21
47434;SHT31;33184;48.774;8.918;2023-07-13T14:02:22;26.60;31.43
47434;SHT31;33184;48.774;8.918;2023-07-13T14:07:44;27.14;32.11
47434;SHT31;33184;48.774;8.918;2023-07-13T14:13:04;28.57;29.71
47434;SHT31;33184;48.774;8.918;2023-07-13T14:18:28;28.88;29.95
47434;SHT31;33184;48.774;8.918;2023-07-13T14:23:49;29.20;29.63
47434;SHT31;33184;48.774;8.918;2023-07-13T14:29:14;29.06;30.03
47434;SHT31;33184;48.774;8.918;2023-07-13T14:34:37;29.45;29.65
47434;SHT31;33184;48.774;8.918;2023-07-13T14:39:57;29.26;28.40
47434;SHT31;33184;48.774;8.918;2023-07-13T14:45:20;28.24;29.95
47434;SHT31;33184;48.774;8.918;2023-07-13T14:50:40;28.45;29.93
47434;SHT31;33184;48.774;8.918;2023-07-13T14:56:02;29.03;30.17
47434;SHT31;33184;48.774;8.918;2023-07-13T15:01:23;28.94;29.66
47434;SHT31;33184;48.774;8.918;2023-07-13T15:06:58;28.18;29.91
47434;SHT31;33184;48.774;8.918;2023-07-13T15:12:19;27.99;29.67
47434;SHT31;33184;48.774;8.918;2023-07-13T15:17:41;27.08;31.53
47434;SHT31;33184;48.774;8.918;2023-07-13T15:23:03;27.21;31.34
47434;SHT31;33184;48.774;8.918;2023-07-13T15:28:23;26.39;33.49
47434;SHT31;33184;48.774;8.918;2023-07-13T15:33:44;26.07;32.87
47434;SHT31;33184;48.774;8.918;2023-07-13T15:39:05;25.81;33.59
47434;SHT31;33184;48.774;8.918;2023-07-13T15:44:31;26.54;33.25
47434;SHT31;33184;48.774;8.918;2023-07-13T15:49:51;25.86;33.85
47434;SHT31;33184;48.774;8.918;2023-07-13T15:55:13;26.06;33.46
47434;SHT31;33184;48.774;8.918;2023-07-13T16:00:34;25.38;34.54
47434;SHT31;33184;48.774;8.918;2023-07-13T16:05:55;26.32;33.44
47434;SHT31;33184;48.774;8.918;2023-07-13T16:11:20;26.56;32.22
47434;SHT31;33184;48.774;8.918;2023-07-13T16:16:41;26.54;32.46
47434;SHT31;33184;48.774;8.918;2023-07-13T16:22:01;26.59;32.44
47434;SHT31;33184;48.774;8.918;2023-07-13T16:27:25;26.63;32.95
47434;SHT31;33184;48.774;8.918;2023-07-13T16:32:45;26.56;33.36
47434;SHT31;33184;48.774;8.918;2023-07-13T16:38:18;26.37;33.67
47434;SHT31;33184;48.774;8.918;2023-07-13T16:43:39;26.29;33.79
47434;SHT31;33184;48.774;8.918;2023-07-13T16:49:00;26.12;33.85
47434;SHT31;33184;48.774;8.918;2023-07-13T16:54:22;26.02;34.09
47434;SHT31;33184;48.774;8.918;2023-07-13T16:59:43;25.82;34.39
47434;SHT31;33184;48.774;8.918;2023-07-13T17:05:08;25.54;34.75
47434;SHT31;33184;48.774;8.918;2023-07-13T17:10:29;24.97;36.10
47434;SHT31;33184;48.774;8.918;2023-07-13T17:15:52;24.70;36.21
47434;SHT31;33184;48.774;8.918;2023-07-13T17:21:19;24.64;36.68
47434;SHT31;33184;48.774;8.918;2023-07-13T17:26:39;24.43;37.09
47434;SHT31;33184;48.774;8.918;2023-07-13T17:32:00;24.23;37.35
47434;SHT31;33184;48.774;8.918;2023-07-13T17:37:21;24.09;37.46
47434;SHT31;33184;48.774;8.918;2023-07-13T17:42:42;24.09;37.92
47434;SHT31;33184;48.774;8.918;2023-07-13T17:48:03;24.06;37.89
47434;SHT31;33184;48.774;8.918;2023-07-13T17:53:26;23.75;38.87
47434;SHT31;33184;48.774;8.918;2023-07-13T17:58:46;23.61;39.20
47434;SHT31;33184;48.774;8.918;2023-07-13T18:04:10;23.46;39.40
47434;SHT31;33184;48.774;8.918;2023-07-13T18:09:32;23.43;39.48
47434;SHT31;33184;48.774;8.918;2023-07-13T18:14:52;23.41;39.95
47434;SHT31;33184;48.774;8.918;2023-07-13T18:20:15;23.36;39.75
47434;SHT31;33184;48.774;8.918;2023-07-13T18:25:37;23.27;40.06
47434;SHT31;33184;48.774;8.918;2023-07-13T18:30:57;23.10;40.89
47434;SHT31;33184;48.774;8.918;2023-07-13T18:36:19;22.89;41.36
47434;SHT31;33184;48.774;8.918;2023-07-13T18:41:40;22.86;41.45
47434;SHT31;33184;48.774;8.918;2023-07-13T18:47:01;22.65;42.08
47434;SHT31;33184;48.774;8.918;2023-07-13T18:52:23;22.53;42.28
47434;SHT31;33184;48.774;8.918;2023-07-13T18:57:44;22.42;42.37
47434;SHT31;33184;48.774;8.918;2023-07-13T19:03:12;22.17;43.22
47434;SHT31;33184;48.774;8.918;2023-07-13T19:08:33;22.12;43.50
47434;SHT31;33184;48.774;8.918;2023-07-13T19:13:54;22.00;43.76
47434;SHT31;33184;48.774;8.918;2023-07-13T19:19:17;21.81;44.19
47434;SHT31;33184;48.774;8.918;2023-07-13T19:24:38;21.57;44.63
47434;SHT31;33184;48.774;8.918;2023-07-13T19:29:59;21.40;45.14
47434;SHT31;33184;48.774;8.918;2023-07-13T19:35:20;21.37;45.20
47434;SHT31;33184;48.774;8.918;2023-07-13T19:40:40;21.35;45.46
47434;SHT31;33184;48.774;8.918;2023-07-13T19:46:01;21.24;46.04
47434;SHT31;33184;48.774;8.918;2023-07-13T19:51:22;21.15;46.24
47434;SHT31;33184;48.774;8.918;2023-07-13T19:56:43;20.99;46.86
47434;SHT31;33184;48.774;8.918;2023-07-13T20:02:04;20.84;47.20
47434;SHT31;33184;48.774;8.918;2023-07-13T20:07:25;20.74;47.69
47434;SHT31;33184;48.774;8.918;2023-07-13T20:12:46;20.62;48.41
47434;SHT31;33184;48.774;8.918;2023-07-13T20:18:11;20.48;48.60
47434;SHT31;33184;48.774;8.918;2023-07-13T20:23:33;20.44;48.70
47434;SHT31;33184;48.774;8.918;2023-07-13T20:28:54;20.47;48.98
47434;SHT31;33184;48.774;8.918;2023-07-13T20:34:20;20.49;48.77
47434;SHT31;33184;48.774;8.918;2023-07-13T20:39:41;20.41;49.02
47434;SHT31;33184;48.774;8.918;2023-07-13T20:45:02;20.37;49.16
47434;SHT31;33184;48.774;8.918;2023-07-13T20:50:27;20.37;49.49
47434;SHT31;33184;48.774;8.918;2023-07-13T20:55:49;20.28;49.75
47434;SHT31;33184;48.774;8.918;2023-07-13T21:06:38;20.14;50.00
47434;SHT31;33184;48.774;8.918;2023-07-13T21:11:59;20.16;51.47
47434;SHT31;33184;48.774;8.918;2023-07-13T21:17:19;20.00;52.51
47434;SHT31;33184;48.774;8.918;2023-07-13T21:22:40;19.89;53.27
47434;SHT31;33184;48.774;8.918;2023-07-13T21:28:01;19.81;53.72
47434;SHT31;33184;48.774;8.918;2023-07-13T21:33:21;19.89;52.78
47434;SHT31;33184;48.774;8.918;2023-07-13T21:38:43;19.84;52.96
47434;SHT31;33184;48.774;8.918;2023-07-13T21:44:21;19.81;53.49
47434;SHT31;33184;48.774;8.918;2023-07-13T21:49:43;19.62;55.88
47434;SHT31;33184;48.774;8.918;2023-07-13T21:55:16;19.31;56.75
47434;SHT31;33184;48.774;8.918;2023-07-13T22:00:37;18.97;57.04
47434;SHT31;33184;48.774;8.918;2023-07-13T22:05:59;18.80;57.04
47434;SHT31;33184;48.774;8.918;2023-07-13T22:11:22;18.92;57.07
47434;SHT31;33184;48.774;8.918;2023-07-13T22:16:43;18.97;57.42
47434;SHT31;33184;48.774;8.918;2023-07-13T22:22:03;18.94;56.66
47434;SHT31;33184;48.774;8.918;2023-07-13T22:27:24;18.92;57.19
47434;SHT31;33184;48.774;8.918;2023-07-13T22:32:48;18.92;57.49
47434;SHT31;33184;48.774;8.918;2023-07-13T22:38:22;18.74;58.76
47434;SHT31;33184;48.774;8.918;2023-07-13T22:43:43;18.57;58.87
47434;SHT31;33184;48.774;8.918;2023-07-13T22:49:21;18.49;58.70
47434;SHT31;33184;48.774;8.918;2023-07-13T22:54:44;18.29;58.65
47434;SHT31;33184;48.774;8.918;2023-07-13T23:00:07;18.13;59.76
47434;SHT31;33184;48.774;8.918;2023-07-13T23:05:33;17.92;60.66
47434;SHT31;33184;48.774;8.918;2023-07-13T23:10:54;17.77;60.83
47434;SHT31;33184;48.774;8.918;2023-07-13T23:16:26;17.86;61.06
47434;SHT31;33184;48.774;8.918;2023-07-13T23:21:50;17.79;61.75
47434;SHT31;33184;48.774;8.918;2023-07-13T23:27:11;17.86;61.74
47434;SHT31;33184;48.774;8.918;2023-07-13T23:32:31;17.83;61.57
47434;SHT31;33184;48.774;8.918;2023-07-13T23:37:52;17.68;62.64
47434;SHT31;33184;48.774;8.918;2023-07-13T23:43:13;17.47;62.58
47434;SHT31;33184;48.774;8.918;2023-07-13T23:48:33;17.51;62.98
47434;SHT31;33184;48.774;8.918;2023-07-13T23:53:54;17.44;64.16
47434;SHT31;33184;48.774;8.918;2023-07-13T23:59:15;17.24;64.51
